sensor_id;sensor_type;location;lat;lon;timestamp;temperature;humidity
23291;DHT22;11814;44.686;10.842;2023-04-24T00:01:47;16.30;99.90
23291;DHT22;11814;44.686;10.842;2023-04-24T00:04:13;16.30;99.90
23291;DHT22;11814;44.686;10.842;2023-04-24T00:06:42;16.20;99.90
23291;DHT22;11814;44.686;10.842;2023-04-24T00:09:08;16.20;99.90
23291;DHT22;11814;44.686;10.842;2023-04-24T00:11:36;16.20;99.90
23291;DHT22;11814;44.686;10.842;2023-04-24T00:14:02;16.10;99.90
23291;DHT22;11814;44.686;10.842;2023-04-24T00:16:28;16.10;99.90
23291;DHT22;11814;44.686;10.842;2023-04-24T00:18:54;16.10;99.90
23291;DHT22;11814;44.686;10.842;2023-04-24T00:21:20;16.00;99.90
23291;DHT22;11814;44.686;10.842;2023-04-24T00:23:47;16.00;99.90
23291;DHT22;11814;44.686;10.842;2023-04-24T00:26:13;16.00;99.90
23291;DHT22;11814;44.686;10.842;2023-04-24T00:28:39;16.00;99.90
23291;DHT22;11814;44.686;10.842;2023-04-24T00:31:05;16.00;99.90
23291;DHT22;11814;44.686;10.842;2023-04-24T00:33:30;16.00;99.90
23291;DHT22;11814;44.686;10.842;2023-04-24T00:35:56;16.10;99.90
23291;DHT22;11814;44.686;10.842;2023-04-24T00:38:22;16.10;99.90
23291;DHT22;11814;44.686;10.842;2023-04-24T00:40:48;16.10;99.90
23291;DHT22;11814;44.686;10.842;2023-04-24T00:43:16;16.20;99.90
23291;DHT22;11814;44.686;10.842;2023-04-24T00:45:42;16.20;99.90
23291;DHT22;11814;44.686;10.842;2023-04-24T00:48:08;16.30;99.90
23291;DHT22;11814;44.686;10.842;2023-04-24T00:50:36;16.30;99.90
23291;DHT22;11814;44.686;10.842;2023-04-24T00:53:02;16.30;99.90
23291;DHT22;11814;44.686;10.842;2023-04-24T00:55:28;16.40;99.90
23291;DHT22;11814;44.686;10.842;2023-04-24T00:57:54;16.40;99.90
23291;DHT22;11814;44.686;10.842;2023-04-24T01:00:20;16.40;99.90
23291;DHT22;11814;44.686;10.842;2023-04-24T01:02:46;16.40;99.90
23291;DHT22;11814;44.686;10.842;2023-04-24T01:05:14;16.40;99.90
23291;DHT22;11814;44.686;10.842;2023-04-24T01:07:41;16.40;99.90
23291;DHT22;11814;44.686;10.842;2023-04-24T01:10:11;16.40;99.90
23291;DHT22;11814;44.686;10.842;2023-04-24T01:12:38;16.30;99.90
23291;DHT22;11814;44.686;10.842;2023-04-24T01:15:04;16.30;99.90
23291;DHT22;11814;44.686;10.842;2023-04-24T01:17:32;16.30;99.90
23291;DHT22;11814;44.686;10.842;2023-04-24T01:19:58;16.20;99.90
23291;DHT22;11814;44.686;10.842;2023-04-24T01:22:25;16.20;99.90
23291;DHT22;11814;44.686;10.842;2023-04-24T01:24:52;16.20;99.90
23291;DHT22;11814;44.686;10.842;2023-04-24T01:27:19;16.20;99.90
23291;DHT22;11814;44.686;10.842;2023-04-24T01:29:45;16.10;99.90
23291;DHT22;11814;44.686;10.842;2023-04-24T01:32:13;16.00;99.90
23291;DHT22;11814;44.686;10.842;2023-04-24T01:34:39;16.00;99.90
23291;DHT22;11814;44.686;10.842;2023-04-24T01:37:05;16.00;99.90
23291;DHT22;11814;44.686;10.842;2023-04-24T01:39:31;16.00;99.90
23291;DHT22;11814;44.686;10.842;2023-04-24T01:41:59;16.00;99.90
23291;DHT22;11814;44.686;10.842;2023-04-24T01:44:25;16.00;99.90
23291;DHT22;11814;44.686;10.842;2023-04-24T01:46:51;16.00;99.90
23291;DHT22;11814;44.686;10.842;2023-04-24T01:49:19;15.90;99.90
23291;DHT22;11814;44.686;10.842;2023-04-24T01:51:45;15.90;99.90
23291;DHT22;11814;44.686;10.842;2023-04-24T01:54:11;15.80;99.90
23291;DHT22;11814;44.686;10.842;2023-04-24T01:56:41;15.80;99.90
23291;DHT22;11814;44.686;10.842;2023-04-24T01:59:10;15.70;99.90
23291;DHT22;11814;44.686;10.842;2023-04-24T02:01:37;15.70;99.90
23291;DHT22;11814;44.686;10.842;2023-04-24T02:04:06;15.70;99.90
23291;DHT22;11814;44.686;10.842;2023-04-24T02:06:32;15.70;99.90
23291;DHT22;11814;44.686;10.842;2023-04-24T02:08:59;15.70;99.90
23291;DHT22;11814;44.686;10.842;2023-04-24T02:11:25;15.70;99.90
23291;DHT22;11814;44.686;10.842;2023-04-24T02:13:51;15.60;99.90
23291;DHT22;11814;44.686;10.842;2023-04-24T02:16:17;15.60;99.90
23291;DHT22;11814;44.686;10.842;2023-04-24T02:18:43;15.60;99.90
23291;DHT22;11814;44.686;10.842;2023-04-24T02:21:09;15.60;99.90
23291;DHT22;11814;44.686;10.842;2023-04-24T02:23:35;15.70;99.90
23291;DHT22;11814;44.686;10.842;2023-04-24T02:26:01;15.70;99.90
23291;DHT22;11814;44.686;10.842;2023-04-24T02:28:26;15.70;99.90
23291;DHT22;11814;44.686;10.842;2023-04-24T02:30:52;15.80;99.90
23291;DHT22;11814;44.686;10.842;2023-04-24T02:33:18;15.80;99.90
23291;DHT22;11814;44.686;10.842;2023-04-24T02:35:43;15.80;99.90
23291;DHT22;11814;44.686;10.842;2023-04-24T02:38:09;15.70;99.90
23291;DHT22;11814;44.686;10.842;2023-04-24T02:40:35;15.70;99.90
23291;DHT22;11814;44.686;10.842;2023-04-24T02:43:01;15.70;99.90
23291;DHT22;11814;44.686;10.842;2023-04-24T02:45:26;15.70;99.90
23291;DHT22;11814;44.686;10.842;2023-04-24T02:47:52;15.70;99.90
23291;DHT22;11814;44.686;10.842;2023-04-24T02:50:18;15.70;99.90
23291;DHT22;11814;44.686;10.842;2023-04-24T02:52:43;15.70;99.90
23291;DHT22;11814;44.686;10.842;2023-04-24T02:55:09;15.70;99.90
23291;DHT22;11814;44.686;10.842;2023-04-24T02:57:35;15.70;99.90
23291;DHT22;11814;44.686;10.842;2023-04-24T03:00:01;15.70;99.90
23291;DHT22;11814;44.686;10.842;2023-04-24T03:02:26;15.70;99.90
23291;DHT22;11814;44.686;10.842;2023-04-24T03:04:52;15.70;99.90
23291;DHT22;11814;44.686;10.842;2023-04-24T03:07:18;15.60;99.90
23291;DHT22;11814;44.686;10.842;2023-04-24T03:09:46;15.50;99.90
23291;DHT22;11814;44.686;10.842;2023-04-24T03:12:12;15.50;99.90
23291;DHT22;11814;44.686;10.842;2023-04-24T03:14:38;15.50;99.90
23291;DHT22;11814;44.686;10.842;2023-04-24T03:17:04;15.50;99.90
23291;DHT22;11814;44.686;10.842;2023-04-24T03:19:30;15.50;99.90
23291;DHT22;11814;44.686;10.842;2023-04-24T03:21:56;15.50;99.90
23291;DHT22;11814;44.686;10.842;2023-04-24T03:24:21;15.50;99.90
23291;DHT22;11814;44.686;10.842;2023-04-24T03:26:48;15.40;99.90
23291;DHT22;11814;44.686;10.842;2023-04-24T03:29:13;15.40;99.90
23291;DHT22;11814;44.686;10.842;2023-04-24T03:31:39;15.30;99.90
23291;DHT22;11814;44.686;10.842;2023-04-24T03:34:05;15.30;99.90
23291;DHT22;11814;44.686;10.842;2023-04-24T03:36:30;15.30;99.90
23291;DHT22;11814;44.686;10.842;2023-04-24T03:38:56;15.30;99.90
23291;DHT22;11814;44.686;10.842;2023-04-24T03:41:22;15.30;99.90
23291;DHT22;11814;44.686;10.842;2023-04-24T03:43:48;15.30;99.90
23291;DHT22;11814;44.686;10.842;2023-04-24T03:46:14;15.30;99.90
23291;DHT22;11814;44.686;10.842;2023-04-24T03:48:40;15.30;99.90
23291;DHT22;11814;44.686;10.842;2023-04-24T03:51:06;15.30;99.90
23291;DHT22;11814;44.686;10.842;2023-04-24T03:53:31;15.40;99.90
23291;DHT22;11814;44.686;10.842;2023-04-24T03:55:57;15.40;99.90
23291;DHT22;11814;44.686;10.842;2023-04-24T03:58:23;15.40;99.90
23291;DHT22;11814;44.686;10.842;2023-04-24T04:00:49;15.40;99.90
23291;DHT22;11814;44.686;10.842;2023-04-24T04:03:15;15.40;99.90
23291;DHT22;11814;44.686;10.842;2023-04-24T04:05:40;15.30;99.90
23291;DHT22;11814;44.686;10.842;2023-04-24T04:08:06;15.30;99.90
23291;DHT22;11814;44.686;10.842;2023-04-24T04:10:32;15.30;99.90
23291;DHT22;11814;44.686;10.842;2023-04-24T04:12:58;15.30;99.90
23291;DHT22;11814;44.686;10.842;2023-04-24T04:15:23;15.20;99.90
23291;DHT22;11814;44.686;10.842;2023-04-24T04:17:49;15.20;99.90
23291;DHT22;11814;44.686;10.842;2023-04-24T04:20:15;15.20;99.90
23291;DHT22;11814;44.686;10.842;2023-04-24T04:22:41;15.10;99.90
23291;DHT22;11814;44.686;10.842;2023-04-24T04:25:06;15.10;99.90
23291;DHT22;11814;44.686;10.842;2023-04-24T04:27:34;15.00;99.90
23291;DHT22;11814;44.686;10.842;2023-04-24T04:30:04;14.90;99.90
23291;DHT22;11814;44.686;10.842;2023-04-24T04:32:33;14.90;99.90
23291;DHT22;11814;44.686;10.842;2023-04-24T04:34:59;14.90;99.90
23291;DHT22;11814;44.686;10.842;2023-04-24T04:37:34;14.90;99.90
23291;DHT22;11814;44.686;10.842;2023-04-24T04:40:01;15.00;99.90
23291;DHT22;11814;44.686;10.842;2023-04-24T04:42:31;14.90;99.90
23291;DHT22;11814;44.686;10.842;2023-04-24T04:44:58;14.90;99.90
23291;DHT22;11814;44.686;10.842;2023-04-24T04:47:24;14.80;99.90
23291;DHT22;11814;44.686;10.842;2023-04-24T04:49:50;14.80;99.90
23291;DHT22;11814;44.686;10.842;2023-04-24T04:52:18;14.80;99.90
23291;DHT22;11814;44.686;10.842;2023-04-24T04:54:44;14.80;99.90
23291;DHT22;11814;44.686;10.842;2023-04-24T04:57:11;14.80;99.90
23291;DHT22;11814;44.686;10.842;2023-04-24T04:59:37;14.90;99.90
23291;DHT22;11814;44.686;10.842;2023-04-24T05:02:03;14.90;99.90
23291;DHT22;11814;44.686;10.842;2023-04-24T05:04:29;14.90;99.90
23291;DHT22;11814;44.686;10.842;2023-04-24T05:06:55;14.90;99.90
23291;DHT22;11814;44.686;10.842;2023-04-24T05:09:21;14.90;99.90
23291;DHT22;11814;44.686;10.842;2023-04-24T05:11:47;14.90;99.90
23291;DHT22;11814;44.686;10.842;2023-04-24T05:14:13;14.80;99.90
23291;DHT22;11814;44.686;10.842;2023-04-24T05:16:39;14.90;99.90
23291;DHT22;11814;44.686;10.842;2023-04-24T05:19:05;14.80;99.90
23291;DHT22;11814;44.686;10.842;2023-04-24T05:21:31;14.90;99.90
23291;DHT22;11814;44.686;10.842;2023-04-24T05:23:57;14.90;99.90
23291;DHT22;11814;44.686;10.842;2023-04-24T05:26:23;14.90;99.90
23291;DHT22;11814;44.686;10.842;2023-04-24T05:28:49;14.90;99.90
23291;DHT22;11814;44.686;10.842;2023-04-24T05:31:15;14.90;99.90
23291;DHT22;11814;44.686;10.842;2023-04-24T05:33:41;14.90;99.90
23291;DHT22;11814;44.686;10.842;2023-04-24T05:36:07;14.90;99.90
23291;DHT22;11814;44.686;10.842;2023-04-24T05:38:33;15.00;99.90
23291;DHT22;11814;44.686;10.842;2023-04-24T05:40:58;15.00;99.90
23291;DHT22;11814;44.686;10.842;2023-04-24T05:43:24;15.00;99.90
23291;DHT22;11814;44.686;10.842;2023-04-24T05:45:50;15.00;99.90
23291;DHT22;11814;44.686;10.842;2023-04-24T05:48:16;15.00;99.90
23291;DHT22;11814;44.686;10.842;2023-04-24T05:50:42;15.00;99.90
23291;DHT22;11814;44.686;10.842;2023-04-24T05:53:07;15.00;99.90
23291;DHT22;11814;44.686;10.842;2023-04-24T05:55:33;15.00;99.90
23291;DHT22;11814;44.686;10.842;2023-04-24T05:57:59;15.00;99.90
23291;DHT22;11814;44.686;10.842;2023-04-24T06:00:25;15.10;99.90
23291;DHT22;11814;44.686;10.842;2023-04-24T06:02:51;15.10;99.90
23291;DHT22;11814;44.686;10.842;2023-04-24T06:05:18;15.20;99.90
23291;DHT22;11814;44.686;10.842;2023-04-24T06:07:44;15.20;99.90
23291;DHT22;11814;44.686;10.842;2023-04-24T06:10:10;15.30;99.90
23291;DHT22;11814;44.686;10.842;2023-04-24T06:12:36;15.40;99.90
23291;DHT22;11814;44.686;10.842;2023-04-24T06:15:02;15.40;99.90
23291;DHT22;11814;44.686;10.842;2023-04-24T06:17:28;15.40;99.90
23291;DHT22;11814;44.686;10.842;2023-04-24T06:19:54;15.40;99.90
23291;DHT22;11814;44.686;10.842;2023-04-24T06:22:19;15.40;99.90
23291;DHT22;11814;44.686;10.842;2023-04-24T06:24:45;15.40;99.90
23291;DHT22;11814;44.686;10.842;2023-04-24T06:27:11;15.40;99.90
23291;DHT22;11814;44.686;10.842;2023-04-24T06:29:36;15.40;99.90
23291;DHT22;11814;44.686;10.842;2023-04-24T06:32:02;15.40;99.90
23291;DHT22;11814;44.686;10.842;2023-04-24T06:34:28;15.40;99.90
23291;DHT22;11814;44.686;10.842;2023-04-24T06:36:55;15.50;99.90
23291;DHT22;11814;44.686;10.842;2023-04-24T06:39:20;15.50;99.90
23291;DHT22;11814;44.686;10.842;2023-04-24T06:41:46;15.50;99.90
23291;DHT22;11814;44.686;10.842;2023-04-24T06:44:12;15.60;99.90
23291;DHT22;11814;44.686;10.842;2023-04-24T06:46:40;15.70;99.90
23291;DHT22;11814;44.686;10.842;2023-04-24T06:49:06;16.00;99.90
23291;DHT22;11814;44.686;10.842;2023-04-24T06:51:32;16.20;99.90
23291;DHT22;11814;44.686;10.842;2023-04-24T06:53:58;16.50;99.90
23291;DHT22;11814;44.686;10.842;2023-04-24T06:56:25;16.80;99.90
23291;DHT22;11814;44.686;10.842;2023-04-24T06:58:51;17.00;99.90
23291;DHT22;11814;44.686;10.842;2023-04-24T07:01:17;17.10;99.90
23291;DHT22;11814;44.686;10.842;2023-04-24T07:03:43;17.20;99.90
23291;DHT22;11814;44.686;10.842;2023-04-24T07:06:09;17.30;99.90
23291;DHT22;11814;44.686;10.842;2023-04-24T07:08:36;17.40;99.90
23291;DHT22;11814;44.686;10.842;2023-04-24T07:11:02;17.40;99.90
23291;DHT22;11814;44.686;10.842;2023-04-24T07:13:28;17.50;99.90
23291;DHT22;11814;44.686;10.842;2023-04-24T07:15:54;17.60;99.90
23291;DHT22;11814;44.686;10.842;2023-04-24T07:18:22;17.70;99.90
23291;DHT22;11814;44.686;10.842;2023-04-24T07:20:47;17.90;99.90
23291;DHT22;11814;44.686;10.842;2023-04-24T07:23:15;18.10;99.90
23291;DHT22;11814;44.686;10.842;2023-04-24T07:25:41;18.30;99.90
23291;DHT22;11814;44.686;10.842;2023-04-24T07:28:07;18.30;99.90
23291;DHT22;11814;44.686;10.842;2023-04-24T07:30:33;18.40;99.90
23291;DHT22;11814;44.686;10.842;2023-04-24T07:32:59;18.30;99.90
23291;DHT22;11814;44.686;10.842;2023-04-24T07:35:26;18.30;99.90
23291;DHT22;11814;44.686;10.842;2023-04-24T07:37:55;18.30;99.90
23291;DHT22;11814;44.686;10.842;2023-04-24T07:40:22;18.20;99.90
23291;DHT22;11814;44.686;10.842;2023-04-24T07:42:48;18.20;99.90
23291;DHT22;11814;44.686;10.842;2023-04-24T07:45:15;18.10;99.90
23291;DHT22;11814;44.686;10.842;2023-04-24T07:47:42;18.10;99.90
23291;DHT22;11814;44.686;10.842;2023-04-24T07:50:10;18.10;99.90
23291;DHT22;11814;44.686;10.842;2023-04-24T07:52:35;18.10;99.90
23291;DHT22;11814;44.686;10.842;2023-04-24T07:55:01;18.10;99.90
23291;DHT22;11814;44.686;10.842;2023-04-24T07:57:28;18.10;99.90
23291;DHT22;11814;44.686;10.842;2023-04-24T07:59:54;18.00;99.90
23291;DHT22;11814;44.686;10.842;2023-04-24T08:02:20;18.00;99.90
23291;DHT22;11814;44.686;10.842;2023-04-24T08:04:54;17.90;99.90
23291;DHT22;11814;44.686;10.842;2023-04-24T08:07:20;17.90;99.90
23291;DHT22;11814;44.686;10.842;2023-04-24T08:09:46;18.00;99.90
23291;DHT22;11814;44.686;10.842;2023-04-24T08:12:11;18.00;99.90
23291;DHT22;11814;44.686;10.842;2023-04-24T08:14:37;18.10;99.90
23291;DHT22;11814;44.686;10.842;2023-04-24T08:17:03;18.20;99.90
23291;DHT22;11814;44.686;10.842;2023-04-24T08:19:29;18.20;99.90
23291;DHT22;11814;44.686;10.842;2023-04-24T08:21:54;18.20;99.90
23291;DHT22;11814;44.686;10.842;2023-04-24T08:24:20;18.20;99.90
23291;DHT22;11814;44.686;10.842;2023-04-24T08:26:46;18.20;99.90
23291;DHT22;11814;44.686;10.842;2023-04-24T08:29:15;18.20;99.90
23291;DHT22;11814;44.686;10.842;2023-04-24T08:31:41;18.40;99.90
23291;DHT22;11814;44.686;10.842;2023-04-24T08:34:07;18.60;99.90
23291;DHT22;11814;44.686;10.842;2023-04-24T08:36:33;18.70;99.90
23291;DHT22;11814;44.686;10.842;2023-04-24T08:38:58;18.70;99.90
23291;DHT22;11814;44.686;10.842;2023-04-24T08:41:24;18.70;99.90
23291;DHT22;11814;44.686;10.842;2023-04-24T08:43:52;18.80;99.90
23291;DHT22;11814;44.686;10.842;2023-04-24T08:46:19;18.80;99.90
23291;DHT22;11814;44.686;10.842;2023-04-24T08:48:45;18.80;99.90
23291;DHT22;11814;44.686;10.842;2023-04-24T08:51:11;19.00;99.90
23291;DHT22;11814;44.686;10.842;2023-04-24T08:53:37;19.00;99.90
23291;DHT22;11814;44.686;10.842;2023-04-24T08:56:04;19.20;99.90
23291;DHT22;11814;44.686;10.842;2023-04-24T08:58:31;19.30;99.90
23291;DHT22;11814;44.686;10.842;2023-04-24T09:00:57;19.40;99.90
23291;DHT22;11814;44.686;10.842;2023-04-24T09:03:24;19.60;99.90
23291;DHT22;11814;44.686;10.842;2023-04-24T09:05:52;19.60;99.90
23291;DHT22;11814;44.686;10.842;2023-04-24T09:08:20;19.60;99.90
23291;DHT22;11814;44.686;10.842;2023-04-24T09:10:47;19.70;99.90
23291;DHT22;11814;44.686;10.842;2023-04-24T09:13:13;19.60;99.90
23291;DHT22;11814;44.686;10.842;2023-04-24T09:15:40;19.60;99.90
23291;DHT22;11814;44.686;10.842;2023-04-24T09:18:07;19.60;99.90
23291;DHT22;11814;44.686;10.842;2023-04-24T09:20:33;19.50;99.90
23291;DHT22;11814;44.686;10.842;2023-04-24T09:23:01;19.40;99.90
23291;DHT22;11814;44.686;10.842;2023-04-24T09:25:34;19.30;99.90
23291;DHT22;11814;44.686;10.842;2023-04-24T09:28:04;19.20;99.90
23291;DHT22;11814;44.686;10.842;2023-04-24T09:30:32;19.10;99.90
23291;DHT22;11814;44.686;10.842;2023-04-24T09:33:12;19.00;99.90
23291;DHT22;11814;44.686;10.842;2023-04-24T09:35:41;19.00;99.90
23291;DHT22;11814;44.686;10.842;2023-04-24T09:38:07;19.00;99.90
23291;DHT22;11814;44.686;10.842;2023-04-24T09:40:34;19.10;99.90
23291;DHT22;11814;44.686;10.842;2023-04-24T09:43:00;19.20;99.90
23291;DHT22;11814;44.686;10.842;2023-04-24T09:45:38;19.40;99.90
23291;DHT22;11814;44.686;10.842;2023-04-24T09:48:05;19.40;99.90
23291;DHT22;11814;44.686;10.842;2023-04-24T09:50:34;19.60;99.90
23291;DHT22;11814;44.686;10.842;2023-04-24T09:53:05;19.80;99.80
23291;DHT22;11814;44.686;10.842;2023-04-24T09:55:31;19.90;99.00
23291;DHT22;11814;44.686;10.842;2023-04-24T09:58:01;20.00;98.50
23291;DHT22;11814;44.686;10.842;2023-04-24T10:00:28;20.20;98.20
23291;DHT22;11814;44.686;10.842;2023-04-24T10:03:02;20.40;98.10
23291;DHT22;11814;44.686;10.842;2023-04-24T10:05:35;20.40;97.60
23291;DHT22;11814;44.686;10.842;2023-04-24T10:08:09;20.50;96.80
23291;DHT22;11814;44.686;10.842;2023-04-24T10:10:39;20.60;96.40
23291;DHT22;11814;44.686;10.842;2023-04-24T10:13:07;20.70;95.90
23291;DHT22;11814;44.686;10.842;2023-04-24T10:15:34;20.80;95.30
23291;DHT22;11814;44.686;10.842;2023-04-24T10:18:00;20.70;94.80
23291;DHT22;11814;44.686;10.842;2023-04-24T10:20:28;20.90;94.90
23291;DHT22;11814;44.686;10.842;2023-04-24T10:22:56;21.00;94.10
23291;DHT22;11814;44.686;10.842;2023-04-24T10:25:24;21.10;93.50
23291;DHT22;11814;44.686;10.842;2023-04-24T10:27:52;21.10;93.20
23291;DHT22;11814;44.686;10.842;2023-04-24T10:30:21;21.20;93.40
23291;DHT22;11814;44.686;10.842;2023-04-24T10:32:46;21.30;93.20
23291;DHT22;11814;44.686;10.842;2023-04-24T10:35:13;21.30;92.60
23291;DHT22;11814;44.686;10.842;2023-04-24T10:37:49;21.20;92.70
23291;DHT22;11814;44.686;10.842;2023-04-24T10:40:19;21.20;92.60
23291;DHT22;11814;44.686;10.842;2023-04-24T10:42:52;21.10;92.30
23291;DHT22;11814;44.686;10.842;2023-04-24T10:45:22;21.20;92.30
23291;DHT22;11814;44.686;10.842;2023-04-24T10:47:57;21.30;92.40
23291;DHT22;11814;44.686;10.842;2023-04-24T10:50:25;21.40;92.00
23291;DHT22;11814;44.686;10.842;2023-04-24T10:52:52;21.50;92.00
23291;DHT22;11814;44.686;10.842;2023-04-24T10:56:07;21.50;92.40
23291;DHT22;11814;44.686;10.842;2023-04-24T10:58:44;21.60;92.20
23291;DHT22;11814;44.686;10.842;2023-04-24T11:01:25;21.60;92.00
23291;DHT22;11814;44.686;10.842;2023-04-24T11:03:57;21.70;92.20
23291;DHT22;11814;44.686;10.842;2023-04-24T11:06:34;21.80;92.10
23291;DHT22;11814;44.686;10.842;2023-04-24T11:09:07;21.80;90.80
23291;DHT22;11814;44.686;10.842;2023-04-24T11:11:35;21.80;90.20
23291;DHT22;11814;44.686;10.842;2023-04-24T11:14:03;21.80;89.60
23291;DHT22;11814;44.686;10.842;2023-04-24T11:16:38;21.90;89.20
23291;DHT22;11814;44.686;10.842;2023-04-24T11:21:42;22.00;88.30
23291;DHT22;11814;44.686;10.842;2023-04-24T11:26:58;22.10;88.20
23291;DHT22;11814;44.686;10.842;2023-04-24T11:29:42;22.00;87.50
23291;DHT22;11814;44.686;10.842;2023-04-24T11:32:27;22.10;87.10
23291;DHT22;11814;44.686;10.842;2023-04-24T11:35:04;22.10;86.60
23291;DHT22;11814;44.686;10.842;2023-04-24T11:37:42;22.10;86.50
23291;DHT22;11814;44.686;10.842;2023-04-24T11:40:13;22.20;85.20
23291;DHT22;11814;44.686;10.842;2023-04-24T11:42:44;22.20;84.50
23291;DHT22;11814;44.686;10.842;2023-04-24T11:45:15;22.30;84.50
23291;DHT22;11814;44.686;10.842;2023-04-24T11:47:42;22.40;84.50
23291;DHT22;11814;44.686;10.842;2023-04-24T11:50:13;22.40;84.50
23291;DHT22;11814;44.686;10.842;2023-04-24T11:52:47;22.40;84.10
23291;DHT22;11814;44.686;10.842;2023-04-24T11:57:47;22.50;83.70
23291;DHT22;11814;44.686;10.842;2023-04-24T12:02:49;22.60;82.60
23291;DHT22;11814;44.686;10.842;2023-04-24T12:05:28;22.60;81.50
23291;DHT22;11814;44.686;10.842;2023-04-24T12:07:56;22.60;80.00
23291;DHT22;11814;44.686;10.842;2023-04-24T12:10:27;22.60;79.20
23291;DHT22;11814;44.686;10.842;2023-04-24T12:12:54;22.60;79.50
23291;DHT22;11814;44.686;10.842;2023-04-24T12:15:21;22.70;79.40
23291;DHT22;11814;44.686;10.842;2023-04-24T12:17:49;22.80;78.40
23291;DHT22;11814;44.686;10.842;2023-04-24T12:20:15;22.90;76.30
23291;DHT22;11814;44.686;10.842;2023-04-24T12:22:51;22.80;74.30
23291;DHT22;11814;44.686;10.842;2023-04-24T12:25:21;22.80;74.20
23291;DHT22;11814;44.686;10.842;2023-04-24T12:27:57;22.80;74.30
23291;DHT22;11814;44.686;10.842;2023-04-24T12:30:40;22.80;74.30
23291;DHT22;11814;44.686;10.842;2023-04-24T12:33:06;22.80;74.40
23291;DHT22;11814;44.686;10.842;2023-04-24T12:35:33;22.80;73.70
23291;DHT22;11814;44.686;10.842;2023-04-24T12:38:08;22.70;73.20
23291;DHT22;11814;44.686;10.842;2023-04-24T12:40:34;22.70;72.70
23291;DHT22;11814;44.686;10.842;2023-04-24T12:43:00;22.70;72.60
23291;DHT22;11814;44.686;10.842;2023-04-24T12:45:26;22.70;71.70
23291;DHT22;11814;44.686;10.842;2023-04-24T12:47:53;22.70;71.80
23291;DHT22;11814;44.686;10.842;2023-04-24T12:50:19;22.70;71.20
23291;DHT22;11814;44.686;10.842;2023-04-24T12:52:45;22.80;71.40
23291;DHT22;11814;44.686;10.842;2023-04-24T12:55:11;22.80;71.20
23291;DHT22;11814;44.686;10.842;2023-04-24T12:57:39;22.80;71.70
23291;DHT22;11814;44.686;10.842;2023-04-24T13:00:06;22.90;72.60
23291;DHT22;11814;44.686;10.842;2023-04-24T13:02:33;22.90;73.30
23291;DHT22;11814;44.686;10.842;2023-04-24T13:04:59;23.00;73.30
23291;DHT22;11814;44.686;10.842;2023-04-24T13:07:26;23.10;73.20
23291;DHT22;11814;44.686;10.842;2023-04-24T13:09:53;23.10;73.10
23291;DHT22;11814;44.686;10.842;2023-04-24T13:12:19;23.10;72.90
23291;DHT22;11814;44.686;10.842;2023-04-24T13:14:45;23.00;72.30
23291;DHT22;11814;44.686;10.842;2023-04-24T13:17:11;23.00;72.60
23291;DHT22;11814;44.686;10.842;2023-04-24T13:19:42;23.00;72.70
23291;DHT22;11814;44.686;10.842;2023-04-24T13:22:12;23.10;72.00
23291;DHT22;11814;44.686;10.842;2023-04-24T13:24:38;23.20;71.20
23291;DHT22;11814;44.686;10.842;2023-04-24T13:27:06;23.20;70.90
23291;DHT22;11814;44.686;10.842;2023-04-24T13:29:32;23.20;71.40
23291;DHT22;11814;44.686;10.842;2023-04-24T13:31:58;23.20;72.20
23291;DHT22;11814;44.686;10.842;2023-04-24T13:34:24;23.20;71.80
23291;DHT22;11814;44.686;10.842;2023-04-24T13:36:54;23.20;71.00
23291;DHT22;11814;44.686;10.842;2023-04-24T13:39:21;23.30;72.30
23291;DHT22;11814;44.686;10.842;2023-04-24T13:41:47;23.40;73.20
23291;DHT22;11814;44.686;10.842;2023-04-24T13:44:14;23.40;73.10
23291;DHT22;11814;44.686;10.842;2023-04-24T13:46:41;23.40;73.60
23291;DHT22;11814;44.686;10.842;2023-04-24T13:49:09;23.40;73.30
23291;DHT22;11814;44.686;10.842;2023-04-24T13:51:34;23.40;72.80
23291;DHT22;11814;44.686;10.842;2023-04-24T13:54:00;23.50;71.40
23291;DHT22;11814;44.686;10.842;2023-04-24T13:56:26;23.50;70.30
23291;DHT22;11814;44.686;10.842;2023-04-24T13:58:52;23.50;70.20
23291;DHT22;11814;44.686;10.842;2023-04-24T14:01:19;23.50;71.00
23291;DHT22;11814;44.686;10.842;2023-04-24T14:03:46;23.60;72.00
23291;DHT22;11814;44.686;10.842;2023-04-24T14:06:11;23.70;71.70
23291;DHT22;11814;44.686;10.842;2023-04-24T14:08:37;23.70;70.70
23291;DHT22;11814;44.686;10.842;2023-04-24T14:11:03;23.80;70.10
23291;DHT22;11814;44.686;10.842;2023-04-24T14:13:29;23.80;68.60
23291;DHT22;11814;44.686;10.842;2023-04-24T14:15:55;23.80;68.10
23291;DHT22;11814;44.686;10.842;2023-04-24T14:18:21;23.80;68.40
23291;DHT22;11814;44.686;10.842;2023-04-24T14:20:47;23.80;68.40
23291;DHT22;11814;44.686;10.842;2023-04-24T14:23:12;23.80;68.20
23291;DHT22;11814;44.686;10.842;2023-04-24T14:25:38;23.90;68.30
23291;DHT22;11814;44.686;10.842;2023-04-24T14:28:05;23.90;68.70
23291;DHT22;11814;44.686;10.842;2023-04-24T14:30:31;23.80;69.00
23291;DHT22;11814;44.686;10.842;2023-04-24T14:32:57;23.70;70.20
23291;DHT22;11814;44.686;10.842;2023-04-24T14:35:22;23.60;70.70
23291;DHT22;11814;44.686;10.842;2023-04-24T14:37:48;23.50;71.30
23291;DHT22;11814;44.686;10.842;2023-04-24T14:40:14;23.60;72.10
23291;DHT22;11814;44.686;10.842;2023-04-24T14:42:40;23.60;72.20
23291;DHT22;11814;44.686;10.842;2023-04-24T14:45:06;23.70;71.70
23291;DHT22;11814;44.686;10.842;2023-04-24T14:47:33;23.80;71.50
23291;DHT22;11814;44.686;10.842;2023-04-24T14:49:59;23.80;70.90
23291;DHT22;11814;44.686;10.842;2023-04-24T14:52:25;23.80;70.40
23291;DHT22;11814;44.686;10.842;2023-04-24T14:54:51;23.90;70.50
23291;DHT22;11814;44.686;10.842;2023-04-24T14:57:16;23.90;70.70
23291;DHT22;11814;44.686;10.842;2023-04-24T14:59:42;23.80;71.00
23291;DHT22;11814;44.686;10.842;2023-04-24T15:02:08;23.90;72.00
23291;DHT22;11814;44.686;10.842;2023-04-24T15:04:33;23.90;71.50
23291;DHT22;11814;44.686;10.842;2023-04-24T15:06:59;24.00;71.10
23291;DHT22;11814;44.686;10.842;2023-04-24T15:09:25;24.10;69.90
23291;DHT22;11814;44.686;10.842;2023-04-24T15:11:52;24.10;69.30
23291;DHT22;11814;44.686;10.842;2023-04-24T15:14:18;24.00;69.20
23291;DHT22;11814;44.686;10.842;2023-04-24T15:16:44;23.80;70.10
23291;DHT22;11814;44.686;10.842;2023-04-24T15:19:10;23.80;70.50
23291;DHT22;11814;44.686;10.842;2023-04-24T15:21:37;23.80;70.30
23291;DHT22;11814;44.686;10.842;2023-04-24T15:24:04;23.80;70.40
23291;DHT22;11814;44.686;10.842;2023-04-24T15:26:30;23.60;70.50